createdAt,value
2022-11-20T00:02:52.697Z,22.2
2022-11-20T00:04:52.295Z,21.4
2022-11-20T00:06:51.401Z,21.5
2022-11-20T00:08:51.323Z,20.0
2022-11-20T00:10:50.488Z,21.4
2022-11-20T00:12:49.973Z,20.5
2022-11-20T00:14:49.497Z,20.6
2022-11-20T00:16:49.206Z,20.3
2022-11-20T00:18:49.391Z,20.4
2022-11-20T00:20:48.624Z,21.1
2022-11-20T00:22:48.211Z,21.3
2022-11-20T00:24:47.187Z,20.3
2022-11-20T00:26:46.892Z,20.7
2022-11-20T00:28:50.447Z,20.8
2022-11-20T00:30:45.800Z,21.2
2022-11-20T00:32:45.349Z,21.6
2022-11-20T00:34:44.893Z,21.2
2022-11-20T00:36:44.444Z,20.7
2022-11-20T00:38:45.032Z,20.4
2022-11-20T00:40:44.019Z,20.2
2022-11-20T00:42:43.783Z,20.5
2022-11-20T00:44:42.774Z,20.6
2022-11-20T00:46:42.169Z,22.7
2022-11-20T00:48:42.087Z,22.5
2022-11-20T00:50:41.623Z,20.7
2022-11-20T00:52:41.105Z,20.5
2022-11-20T00:54:40.317Z,21.6
2022-11-20T00:58:41.711Z,21.3
2022-11-20T01:00:39.358Z,21.0
2022-11-20T01:02:38.951Z,21.7
2022-11-20T01:04:38.418Z,21.6
2022-11-20T01:06:39.457Z,21.1
2022-11-20T01:08:38.016Z,20.9
2022-11-20T01:10:37.304Z,20.8
2022-11-20T01:12:36.213Z,21.4
2022-11-20T01:14:35.760Z,20.9
2022-11-20T01:16:37.466Z,20.8
2022-11-20T01:18:35.987Z,21.9
2022-11-20T01:20:35.917Z,20.6
2022-11-20T01:22:34.342Z,21.9
2022-11-20T01:24:33.904Z,21.8
2022-11-20T01:26:35.160Z,21.3
2022-11-20T01:28:33.436Z,22.2
2022-11-20T01:30:32.502Z,22.0
2022-11-20T01:32:31.759Z,20.7
2022-11-20T01:34:31.516Z,20.6
2022-11-20T01:38:30.463Z,21.4
2022-11-20T01:40:30.027Z,21.6
2022-11-20T01:42:39.958Z,21.3
2022-11-20T01:44:47.911Z,22.5
2022-11-20T01:46:29.291Z,23.2
2022-11-20T01:48:34.144Z,23.7
2022-11-20T01:50:29.614Z,23.4
2022-11-20T01:52:33.068Z,22.5
2022-11-20T01:54:34.831Z,23.4
2022-11-20T01:56:28.483Z,22.4
2022-11-20T01:58:31.233Z,23.6
2022-11-20T02:00:25.829Z,24.9
2022-11-20T02:02:25.945Z,22.2
2022-11-20T02:04:25.734Z,22.9
2022-11-20T02:06:28.117Z,23.4
2022-11-20T02:08:24.056Z,22.9
2022-11-20T02:10:23.678Z,23.3
2022-11-20T02:12:32.826Z,22.8
2022-11-20T02:14:23.284Z,23.4
2022-11-20T02:16:25.323Z,24.3
2022-11-20T02:18:22.302Z,22.8
2022-11-20T02:20:21.168Z,24.2
2022-11-20T02:22:29.175Z,23.3
2022-11-20T02:24:22.400Z,23.8
2022-11-20T02:26:23.042Z,23.9
2022-11-20T02:28:20.724Z,24.3
2022-11-20T02:30:19.246Z,23.3
2022-11-20T02:32:20.053Z,22.5
2022-11-20T02:34:17.977Z,22.0
2022-11-20T02:36:17.508Z,22.6
2022-11-20T02:38:18.061Z,21.5
2022-11-20T02:40:16.972Z,22.2
2022-11-20T02:42:16.275Z,22.8
2022-11-20T02:44:16.032Z,21.9
2022-11-20T02:48:15.242Z,21.1
2022-11-20T02:50:15.436Z,21.7
2022-11-20T02:52:13.903Z,23.0
2022-11-20T02:54:13.560Z,22.2
2022-11-20T02:56:13.486Z,22.4
2022-11-20T02:58:12.661Z,23.1
2022-11-20T03:00:13.530Z,22.3
2022-11-20T03:02:11.803Z,22.5
2022-11-20T03:04:11.461Z,22.6
2022-11-20T03:06:11.720Z,22.5
2022-11-20T03:08:10.722Z,21.5
2022-11-20T03:10:10.344Z,23.6
2022-11-20T03:12:09.524Z,24.0
2022-11-20T03:16:11.619Z,23.0
2022-11-20T03:18:08.290Z,24.9
2022-11-20T03:20:09.706Z,24.1
2022-11-20T03:22:07.281Z,23.2
2022-11-20T03:24:07.726Z,26.7
2022-11-20T03:26:09.893Z,26.1
2022-11-20T03:28:06.605Z,25.9
2022-11-20T03:30:06.884Z,25.5
2022-11-20T03:32:05.707Z,25.2
2022-11-20T03:34:04.994Z,26.2
2022-11-20T03:36:07.109Z,25.2
2022-11-20T03:38:03.735Z,26.0
2022-11-20T03:40:04.708Z,26.4
2022-11-20T03:42:12.915Z,27.1
2022-11-20T03:44:04.436Z,25.6
2022-11-20T03:46:03.887Z,26.1
2022-11-20T03:48:04.663Z,26.3
2022-11-20T03:50:01.224Z,25.2
2022-11-20T03:52:00.575Z,26.7
2022-11-20T03:57:59.358Z,27.9
2022-11-20T03:59:58.959Z,27.2
2022-11-20T04:01:58.339Z,25.8
2022-11-20T04:03:58.434Z,26.8
2022-11-20T04:06:01.628Z,26.7
2022-11-20T04:07:57.797Z,26.6
2022-11-20T04:09:56.987Z,26.0
2022-11-20T04:11:56.149Z,27.6
2022-11-20T04:13:57.697Z,27.8
2022-11-20T04:15:57.849Z,28.5
2022-11-20T04:17:55.180Z,27.7
2022-11-20T04:19:54.261Z,26.7
2022-11-20T04:23:53.845Z,27.5
2022-11-20T04:25:53.135Z,27.4
2022-11-20T04:27:52.827Z,27.5
2022-11-20T04:29:52.629Z,28.6
2022-11-20T04:31:51.550Z,28.2
2022-11-20T04:33:51.350Z,26.9
2022-11-20T04:35:50.693Z,27.8
2022-11-20T04:37:52.479Z,27.7
2022-11-20T04:39:49.695Z,26.0
2022-11-20T04:41:59.134Z,26.7
2022-11-20T04:43:50.220Z,27.8
2022-11-20T04:45:50.569Z,26.1
2022-11-20T04:47:48.270Z,27.0
2022-11-20T04:49:48.235Z,27.2
2022-11-20T04:51:47.357Z,26.8
2022-11-20T04:53:46.497Z,26.9
2022-11-20T04:55:46.048Z,27.8
2022-11-20T04:57:45.672Z,26.3
2022-11-20T04:59:45.432Z,26.1
2022-11-20T05:01:44.786Z,26.8
2022-11-20T05:03:45.276Z,27.5
2022-11-20T05:05:43.847Z,27.1
2022-11-20T05:07:43.910Z,25.7
2022-11-20T05:09:43.306Z,26.2
2022-11-20T05:11:42.558Z,24.9
2022-11-20T05:13:42.715Z,24.8
2022-11-20T05:15:41.544Z,24.5
2022-11-20T05:17:40.984Z,25.2
2022-11-20T05:19:40.531Z,25.1
2022-11-20T05:21:40.078Z,25.2
2022-11-20T05:23:40.491Z,25.4
2022-11-20T05:25:39.216Z,25.7
2022-11-20T05:27:39.155Z,26.7
2022-11-20T05:29:38.726Z,25.8
2022-11-20T05:31:39.742Z,26.2
2022-11-20T05:33:40.225Z,25.7
2022-11-20T05:35:37.188Z,26.2
2022-11-20T05:37:36.632Z,26.1
2022-11-20T05:39:36.058Z,26.2
2022-11-20T05:41:35.867Z,25.5
2022-11-20T05:43:36.171Z,24.5
2022-11-20T05:45:35.136Z,25.0
2022-11-20T05:47:34.684Z,24.8
2022-11-20T05:49:34.257Z,25.9
2022-11-20T05:51:33.550Z,25.4
2022-11-20T05:53:34.357Z,25.3
2022-11-20T05:55:32.390Z,25.6
2022-11-20T05:57:32.050Z,24.3
2022-11-20T05:59:31.643Z,24.0
2022-11-20T06:01:31.109Z,24.3
2022-11-20T06:03:30.809Z,25.9
2022-11-20T06:05:30.225Z,24.6
2022-11-20T06:07:29.968Z,25.1
2022-11-20T06:09:29.768Z,25.2
2022-11-20T06:11:29.104Z,23.6
2022-11-20T06:13:28.423Z,23.4
2022-11-20T06:15:28.157Z,23.2
2022-11-20T06:17:27.542Z,22.1
2022-11-20T06:19:27.120Z,22.3
2022-11-20T06:21:26.730Z,22.6
2022-11-20T06:23:28.472Z,21.9
2022-11-20T06:25:25.674Z,20.7
2022-11-20T06:27:25.282Z,22.3
2022-11-20T06:29:27.790Z,22.1
2022-11-20T06:31:26.327Z,21.4
2022-11-20T06:33:24.370Z,22.6
2022-11-20T06:35:23.532Z,23.7
2022-11-20T06:37:23.132Z,21.7
2022-11-20T06:41:22.848Z,22.8
2022-11-20T06:45:21.443Z,22.6
2022-11-20T06:47:20.930Z,22.8
2022-11-20T06:49:20.889Z,23.8
2022-11-20T06:51:21.391Z,22.4
2022-11-20T06:53:19.915Z,22.1
2022-11-20T06:57:18.729Z,22.6
2022-11-20T06:59:18.174Z,23.3
2022-11-20T07:01:17.692Z,23.7
2022-11-20T07:03:17.416Z,23.8
2022-11-20T07:05:17.496Z,24.0
2022-11-20T07:07:16.511Z,23.6
2022-11-20T07:09:16.385Z,23.4
2022-11-20T07:11:15.839Z,25.2
2022-11-20T07:13:15.266Z,25.1
2022-11-20T07:15:14.589Z,25.2
2022-11-20T07:17:14.033Z,24.5
2022-11-20T07:19:13.634Z,25.0
2022-11-20T07:21:13.350Z,25.5
2022-11-20T07:23:12.813Z,25.2
2022-11-20T07:27:11.838Z,24.5
2022-11-20T07:29:11.487Z,25.9
2022-11-20T07:31:18.550Z,26.4
2022-11-20T07:33:11.049Z,25.1
2022-11-20T07:35:10.143Z,26.6
2022-11-20T07:37:10.615Z,27.5
2022-11-20T07:39:09.241Z,25.2
2022-11-20T07:41:08.916Z,25.1
2022-11-20T07:43:08.418Z,26.0
2022-11-20T07:45:08.435Z,27.2
2022-11-20T07:47:07.540Z,26.5
2022-11-20T07:49:07.078Z,27.2
2022-11-20T07:51:07.055Z,26.6
2022-11-20T07:53:06.943Z,27.6
2022-11-20T07:55:07.889Z,27.1
2022-11-20T07:57:05.314Z,27.6
2022-11-20T07:59:04.893Z,27.0
2022-11-20T08:01:05.585Z,26.9
2022-11-20T08:03:04.468Z,28.1
2022-11-20T08:05:03.764Z,27.4
2022-11-20T08:07:03.431Z,27.3
2022-11-20T08:09:03.390Z,27.2
2022-11-20T08:11:12.103Z,28.6
2022-11-20T08:13:11.946Z,27.4
2022-11-20T08:15:05.243Z,26.5
2022-11-20T08:17:00.978Z,26.6
2022-11-20T08:19:01.410Z,27.0
2022-11-20T08:21:02.841Z,28.2
2022-11-20T08:23:01.142Z,28.0
2022-11-20T08:24:59.382Z,27.2
2022-11-20T08:26:59.155Z,26.7
2022-11-20T08:28:59.134Z,27.3
2022-11-20T08:30:59.178Z,26.3
2022-11-20T08:33:02.336Z,26.5
2022-11-20T08:34:57.491Z,25.9
2022-11-20T08:36:56.908Z,26.2
2022-11-20T08:38:56.363Z,27.3
2022-11-20T08:41:06.900Z,27.1
2022-11-20T08:42:55.526Z,27.5
2022-11-20T08:44:55.181Z,27.1
2022-11-20T08:46:54.724Z,26.3
2022-11-20T08:48:54.448Z,27.3
2022-11-20T08:50:58.985Z,28.8
2022-11-20T08:52:54.004Z,26.7
2022-11-20T08:54:53.467Z,27.7
2022-11-20T08:56:53.183Z,28.3
2022-11-20T08:59:18.354Z,28.0
2022-11-20T09:00:52.412Z,29.5
2022-11-20T09:02:52.232Z,28.4
2022-11-20T09:04:51.419Z,49.2
2022-11-20T09:06:51.270Z,39.3
2022-11-20T09:08:52.551Z,31.0
2022-11-20T09:10:51.699Z,27.6
2022-11-20T09:12:50.589Z,27.1
2022-11-20T09:14:54.745Z,31.3
2022-11-20T09:16:49.501Z,38.4
2022-11-20T09:18:57.822Z,27.9
2022-11-20T09:20:48.237Z,36.4
2022-11-20T09:22:48.499Z,54.8
2022-11-20T09:24:47.059Z,33.7
2022-11-20T09:26:46.845Z,29.4
2022-11-20T09:28:46.438Z,26.7
2022-11-20T09:30:45.878Z,28.7
2022-11-20T09:32:45.500Z,29.8
2022-11-20T09:34:45.081Z,29.3
2022-11-20T09:36:45.690Z,38.4
2022-11-20T09:38:45.201Z,37.4
2022-11-20T09:40:49.971Z,28.4
2022-11-20T09:42:47.270Z,31.9
2022-11-20T09:44:56.044Z,30.1
2022-11-20T09:46:53.838Z,30.2
2022-11-20T09:48:56.004Z,29.8
2022-11-20T09:50:48.825Z,29.2
2022-11-20T09:52:46.514Z,29.4
2022-11-20T09:54:41.443Z,27.6
2022-11-20T09:56:45.727Z,24.4
2022-11-20T09:58:42.796Z,26.7
2022-11-20T10:00:40.133Z,25.7
2022-11-20T10:02:46.764Z,24.3
2022-11-20T10:04:45.116Z,23.7
2022-11-20T10:06:59.445Z,23.5
2022-11-20T10:08:45.217Z,25.0
2022-11-20T10:10:44.682Z,25.1
2022-11-20T10:12:55.782Z,23.3
2022-11-20T10:14:50.005Z,23.7
2022-11-20T10:16:46.539Z,23.3
2022-11-20T10:18:51.428Z,23.2
2022-11-20T10:20:44.907Z,22.8
2022-11-20T10:22:50.154Z,23.3
2022-11-20T10:24:46.045Z,22.1
2022-11-20T10:26:43.261Z,21.8
2022-11-20T10:28:55.499Z,21.0
2022-11-20T10:32:38.007Z,20.0
2022-11-20T10:34:41.934Z,20.1
2022-11-20T10:36:36.971Z,19.1
2022-11-20T10:38:38.803Z,20.2
2022-11-20T10:40:38.569Z,19.0
2022-11-20T10:42:38.179Z,18.5
2022-11-20T10:44:41.597Z,18.3
2022-11-20T10:46:40.774Z,17.8
2022-11-20T10:48:32.708Z,17.3
2022-11-20T10:50:31.410Z,17.1
2022-11-20T10:52:43.167Z,17.4
2022-11-20T10:54:36.897Z,16.6
2022-11-20T10:56:39.006Z,15.8
2022-11-20T10:58:38.256Z,16.1
2022-11-20T11:00:31.481Z,16.2
2022-11-20T11:02:35.662Z,15.7
2022-11-20T11:04:36.984Z,14.2
2022-11-20T11:06:34.679Z,13.8
2022-11-20T11:08:32.806Z,14.2
2022-11-20T11:10:35.844Z,14.6
2022-11-20T11:12:28.995Z,13.5
2022-11-20T11:14:26.947Z,12.6
2022-11-20T11:16:27.256Z,12.7
2022-11-20T11:18:27.431Z,11.0
2022-11-20T11:20:26.563Z,10.5
2022-11-20T11:22:25.443Z,10.6
2022-11-20T11:24:41.564Z,9.8
2022-11-20T11:26:24.572Z,8.6
2022-11-20T11:28:27.444Z,8.0
2022-11-20T11:30:25.152Z,7.8
2022-11-20T11:32:23.091Z,7.7
2022-11-20T11:34:22.825Z,8.3
2022-11-20T11:36:25.055Z,7.5
2022-11-20T11:38:27.947Z,6.7
2022-11-20T11:40:24.610Z,7.2
2022-11-20T11:44:34.062Z,6.9
2022-11-20T11:46:28.330Z,6.1
2022-11-20T11:48:21.457Z,5.7
2022-11-20T11:50:22.562Z,5.4
2022-11-20T11:52:24.537Z,5.6
2022-11-20T11:56:20.611Z,4.9
2022-11-20T11:58:29.696Z,5.4
2022-11-20T12:00:21.573Z,4.6
2022-11-20T12:04:26.797Z,4.1
2022-11-20T12:06:17.719Z,3.8
2022-11-20T12:08:23.960Z,4.2
2022-11-20T12:10:23.039Z,4.3
2022-11-20T12:12:20.936Z,4.1
2022-11-20T12:14:23.898Z,3.4
2022-11-20T12:16:19.438Z,4.0
2022-11-20T12:18:18.351Z,3.4
2022-11-20T12:20:15.268Z,3.6
2022-11-20T12:22:32.274Z,3.1
2022-11-20T12:24:31.469Z,3.3
2022-11-20T12:26:25.493Z,3.6
2022-11-20T12:28:27.661Z,4.2
2022-11-20T12:30:15.296Z,3.9
2022-11-20T12:32:33.464Z,4.2
2022-11-20T12:34:24.336Z,3.7
2022-11-20T12:36:19.481Z,3.0
2022-11-20T12:40:24.324Z,3.3
2022-11-20T12:42:32.744Z,3.4
2022-11-20T12:44:35.248Z,2.9
2022-11-20T12:46:20.898Z,3.2
2022-11-20T12:48:25.609Z,3.0
2022-11-20T12:52:21.147Z,3.8
2022-11-20T12:56:22.688Z,3.0
2022-11-20T12:58:13.026Z,3.1
2022-11-20T13:02:23.402Z,2.8
2022-11-20T13:04:16.328Z,3.0
2022-11-20T13:06:15.438Z,2.9
2022-11-20T13:08:18.784Z,3.1
2022-11-20T13:10:16.721Z,3.0
2022-11-20T13:12:12.459Z,3.1
2022-11-20T13:16:14.373Z,2.7
2022-11-20T13:18:09.587Z,2.9
2022-11-20T13:20:12.375Z,3.4
2022-11-20T13:22:04.864Z,2.8
2022-11-20T13:24:05.501Z,3.2
2022-11-20T13:28:15.309Z,3.5
2022-11-20T13:30:15.345Z,3.3
2022-11-20T13:32:08.161Z,3.4
2022-11-20T13:34:05.890Z,3.5
2022-11-20T13:38:06.742Z,3.8
2022-11-20T13:42:03.711Z,4.4
2022-11-20T13:44:12.992Z,4.1
2022-11-20T13:46:03.432Z,3.8
2022-11-20T13:48:04.007Z,3.3
2022-11-20T13:50:04.347Z,3.7
2022-11-20T13:52:18.236Z,3.1
2022-11-20T13:54:19.256Z,3.4
2022-11-20T13:58:09.872Z,3.1
2022-11-20T14:00:10.403Z,2.9
2022-11-20T14:01:59.678Z,3.0
2022-11-20T14:04:06.102Z,3.4
2022-11-20T14:06:02.862Z,2.7
2022-11-20T14:09:57.714Z,3.1
2022-11-20T14:11:57.211Z,3.0
2022-11-20T14:13:59.500Z,2.9
2022-11-20T14:15:57.882Z,2.7
2022-11-20T14:17:55.540Z,2.8
2022-11-20T14:20:00.006Z,2.7
2022-11-20T14:22:05.472Z,2.9
2022-11-20T14:24:04.652Z,2.7
2022-11-20T14:25:55.158Z,2.8
2022-11-20T14:27:55.618Z,2.7
2022-11-20T14:29:53.789Z,3.0
2022-11-20T14:31:54.925Z,3.2
2022-11-20T14:33:55.188Z,2.9
2022-11-20T14:35:54.875Z,3.1
2022-11-20T14:39:53.172Z,2.9
2022-11-20T14:41:52.245Z,3.2
2022-11-20T14:43:55.910Z,2.9
2022-11-20T14:47:52.382Z,2.7
2022-11-20T14:51:59.858Z,2.3
2022-11-20T14:53:49.232Z,2.5
2022-11-20T14:55:58.635Z,2.8
2022-11-20T14:59:48.086Z,3.5
2022-11-20T15:01:56.675Z,2.9
2022-11-20T15:04:00.938Z,3.4
2022-11-20T15:05:50.201Z,3.5
2022-11-20T15:07:49.099Z,3.2
2022-11-20T15:11:55.000Z,3.0
2022-11-20T15:15:49.331Z,2.7
2022-11-20T15:17:45.271Z,3.3
2022-11-20T15:19:44.590Z,4.3
2022-11-20T15:21:44.132Z,3.0
2022-11-20T15:23:44.254Z,2.7
2022-11-20T15:25:43.705Z,2.9
2022-11-20T15:27:45.038Z,2.6
2022-11-20T15:29:42.879Z,2.5
2022-11-20T15:33:42.594Z,2.9
2022-11-20T15:35:42.169Z,2.6
2022-11-20T15:37:41.787Z,2.9
2022-11-20T15:39:41.167Z,3.8
2022-11-20T15:41:41.162Z,3.0
2022-11-20T15:47:39.693Z,3.4
2022-11-20T15:51:42.246Z,3.6
2022-11-20T15:53:40.746Z,3.9
2022-11-20T15:55:38.201Z,3.7
2022-11-20T15:57:37.766Z,4.3
2022-11-20T16:01:37.358Z,4.1
2022-11-20T16:03:36.888Z,4.4
2022-11-20T16:05:36.855Z,4.0
2022-11-20T16:09:35.935Z,4.2
2022-11-20T16:11:36.528Z,4.1
2022-11-20T16:13:44.791Z,3.9
2022-11-20T16:17:42.526Z,3.8
2022-11-20T16:19:33.966Z,4.2
2022-11-20T16:23:33.293Z,4.0
2022-11-20T16:25:33.465Z,4.1
2022-11-20T16:27:32.554Z,3.9
2022-11-20T16:29:32.407Z,4.2
2022-11-20T16:31:32.773Z,4.3
2022-11-20T16:35:31.845Z,4.1
2022-11-20T16:37:30.973Z,3.9
2022-11-20T16:39:30.534Z,4.6
2022-11-20T16:41:33.015Z,4.8
2022-11-20T16:43:29.803Z,4.1
2022-11-20T16:47:32.690Z,4.5
2022-11-20T16:49:28.941Z,4.0
2022-11-20T16:51:30.065Z,4.2
2022-11-20T16:53:27.975Z,4.8
2022-11-20T16:57:28.841Z,3.9
2022-11-20T16:59:27.561Z,4.5
2022-11-20T17:01:28.036Z,4.4
2022-11-20T17:03:26.275Z,4.1
2022-11-20T17:05:28.955Z,4.9
2022-11-20T17:07:25.641Z,4.0
2022-11-20T17:09:25.334Z,4.3
2022-11-20T17:11:26.193Z,4.6
2022-11-20T17:13:24.647Z,4.7
2022-11-20T17:15:24.221Z,4.4
2022-11-20T17:17:23.902Z,4.6
2022-11-20T17:19:23.795Z,3.8
2022-11-20T17:21:23.949Z,4.2
2022-11-20T17:23:23.417Z,3.9
2022-11-20T17:25:22.972Z,4.4
2022-11-20T17:27:22.804Z,4.8
2022-11-20T17:29:23.302Z,4.7
2022-11-20T17:31:21.499Z,3.7
2022-11-20T17:33:21.002Z,4.1
2022-11-20T17:35:20.686Z,4.5
2022-11-20T17:37:20.381Z,3.9
2022-11-20T17:39:20.104Z,3.5
2022-11-20T17:41:21.819Z,3.0
2022-11-20T17:43:19.370Z,3.4
2022-11-20T17:45:18.879Z,2.7
2022-11-20T17:47:18.744Z,3.0
2022-11-20T17:49:22.894Z,2.1
2022-11-20T17:51:19.867Z,2.8
2022-11-20T17:53:17.525Z,1.8
2022-11-20T17:57:26.503Z,2.1
2022-11-20T18:01:16.689Z,2.2
2022-11-20T18:03:15.631Z,2.1
2022-11-20T18:05:15.461Z,1.8
2022-11-20T18:09:14.510Z,2.1
2022-11-20T18:11:17.132Z,1.9
2022-11-20T18:13:14.381Z,1.7
2022-11-20T18:15:14.272Z,1.8
2022-11-20T18:17:14.128Z,2.3
2022-11-20T18:19:14.473Z,1.8
2022-11-20T18:21:12.300Z,2.3
2022-11-20T18:23:12.163Z,2.0
2022-11-20T18:27:14.457Z,2.2
2022-11-20T18:33:10.168Z,2.0
2022-11-20T18:35:09.992Z,2.4
2022-11-20T18:37:09.995Z,2.9
2022-11-20T18:39:10.617Z,3.2
2022-11-20T18:41:18.914Z,2.2
2022-11-20T18:43:20.118Z,2.5
2022-11-20T18:45:08.618Z,2.7
2022-11-20T18:47:14.630Z,2.6
2022-11-20T18:49:07.321Z,2.7
2022-11-20T18:51:07.384Z,2.6
2022-11-20T18:53:06.413Z,2.8
2022-11-20T18:57:05.675Z,3.1
2022-11-20T19:01:05.547Z,3.2
2022-11-20T19:03:05.290Z,3.7
2022-11-20T19:05:05.043Z,4.0
2022-11-20T19:07:04.797Z,3.7
2022-11-20T19:09:05.206Z,4.8
2022-11-20T19:11:05.704Z,3.9
2022-11-20T19:13:03.991Z,4.6
2022-11-20T19:15:02.723Z,4.8
2022-11-20T19:17:02.984Z,4.5
2022-11-20T19:19:03.765Z,4.9
2022-11-20T19:21:06.368Z,5.1
2022-11-20T19:23:01.157Z,5.2
2022-11-20T19:25:00.748Z,5.0
2022-11-20T19:27:00.844Z,5.5
2022-11-20T19:29:00.724Z,6.1
2022-11-20T19:31:03.036Z,5.7
2022-11-20T19:32:59.034Z,5.5
2022-11-20T19:34:58.591Z,6.3
2022-11-20T19:38:58.441Z,5.3
2022-11-20T19:40:57.595Z,6.0
2022-11-20T19:44:57.334Z,6.1
2022-11-20T19:46:57.647Z,5.7
2022-11-20T19:48:57.144Z,5.8
2022-11-20T19:50:56.915Z,6.0
2022-11-20T19:52:58.682Z,5.9
2022-11-20T19:54:55.533Z,6.1
2022-11-20T19:56:54.520Z,5.9
2022-11-20T19:58:55.734Z,6.1
2022-11-20T20:00:54.125Z,5.8
2022-11-20T20:02:53.450Z,6.3
2022-11-20T20:04:52.954Z,6.1
2022-11-20T20:06:52.653Z,5.9
2022-11-20T20:08:55.693Z,6.0
2022-11-20T20:10:56.628Z,5.8
2022-11-20T20:14:51.294Z,5.9
2022-11-20T20:16:51.211Z,5.4
2022-11-20T20:18:54.069Z,5.7
2022-11-20T20:20:50.067Z,5.8
2022-11-20T20:22:49.632Z,6.2
2022-11-20T20:24:51.204Z,5.6
2022-11-20T20:26:48.909Z,5.9
2022-11-20T20:28:49.319Z,6.1
2022-11-20T20:30:48.109Z,6.0
2022-11-20T20:32:51.901Z,5.8
2022-11-20T20:34:47.361Z,5.9
2022-11-20T20:36:47.128Z,5.5
2022-11-20T20:38:50.598Z,5.8
2022-11-20T20:40:47.757Z,6.3
2022-11-20T20:42:46.246Z,6.0
2022-11-20T20:44:55.318Z,6.2
2022-11-20T20:46:45.200Z,5.4
2022-11-20T20:48:44.884Z,6.3
2022-11-20T20:50:52.777Z,6.4
2022-11-20T20:52:44.479Z,5.9
2022-11-20T20:54:43.718Z,6.1
2022-11-20T20:56:43.663Z,5.4
2022-11-20T20:58:43.223Z,6.1
2022-11-20T21:00:42.665Z,6.0
2022-11-20T21:02:42.570Z,6.2
2022-11-20T21:06:42.387Z,6.7
2022-11-20T21:08:44.299Z,6.1
2022-11-20T21:10:40.914Z,6.3
2022-11-20T21:12:40.616Z,5.6
2022-11-20T21:16:42.828Z,5.7
2022-11-20T21:18:39.918Z,6.1
2022-11-20T21:20:49.051Z,5.5
2022-11-20T21:22:38.743Z,4.9
2022-11-20T21:24:38.324Z,5.3
2022-11-20T21:26:38.063Z,5.5
2022-11-20T21:28:37.986Z,5.7
2022-11-20T21:32:37.251Z,5.1
2022-11-20T21:34:36.544Z,5.4
2022-11-20T21:36:36.161Z,5.6
2022-11-20T21:38:36.165Z,6.0
2022-11-20T21:40:35.621Z,5.7
2022-11-20T21:42:35.038Z,5.2
2022-11-20T21:44:34.702Z,5.7
2022-11-20T21:46:38.030Z,4.9
2022-11-20T21:48:36.367Z,5.1
2022-11-20T21:52:33.329Z,6.1
2022-11-20T21:54:34.829Z,5.4
2022-11-20T21:56:32.786Z,5.3
2022-11-20T21:58:34.002Z,5.1
2022-11-20T22:00:31.751Z,5.5
2022-11-20T22:02:31.550Z,5.2
2022-11-20T22:04:31.138Z,4.9
2022-11-20T22:06:33.104Z,5.4
2022-11-20T22:08:30.336Z,5.1
2022-11-20T22:10:29.914Z,4.9
2022-11-20T22:12:29.452Z,4.7
2022-11-20T22:14:29.231Z,5.3
2022-11-20T22:16:29.523Z,5.1
2022-11-20T22:18:28.985Z,5.3
2022-11-20T22:22:27.732Z,4.6
2022-11-20T22:24:27.479Z,4.5
2022-11-20T22:26:29.299Z,4.9
2022-11-20T22:28:26.423Z,5.5
2022-11-20T22:30:26.625Z,4.5
2022-11-20T22:32:25.701Z,5.0
2022-11-20T22:34:25.514Z,5.2
2022-11-20T22:36:27.444Z,4.3
2022-11-20T22:38:29.350Z,4.7
2022-11-20T22:40:24.302Z,4.5
2022-11-20T22:42:24.111Z,4.3
2022-11-20T22:44:24.359Z,4.8
2022-11-20T22:46:24.662Z,4.9
2022-11-20T22:48:22.607Z,5.0
2022-11-20T22:50:22.421Z,4.3
2022-11-20T22:52:21.960Z,4.4
2022-11-20T22:54:21.759Z,4.3
2022-11-20T22:56:21.723Z,3.8
2022-11-20T22:58:20.813Z,4.1
2022-11-20T23:00:20.747Z,4.3
2022-11-20T23:02:19.902Z,4.0
2022-11-20T23:04:19.899Z,4.3
2022-11-20T23:06:21.433Z,4.0
2022-11-20T23:10:19.081Z,4.3
2022-11-20T23:12:18.288Z,4.1
2022-11-20T23:14:17.670Z,3.8
2022-11-20T23:20:16.772Z,4.3
2022-11-20T23:22:16.202Z,4.0
2022-11-20T23:28:15.227Z,4.5
2022-11-20T23:30:15.226Z,4.1
2022-11-20T23:32:14.735Z,3.9
2022-11-20T23:38:13.130Z,3.8
2022-11-20T23:40:13.082Z,4.0
2022-11-20T23:42:12.969Z,3.4
2022-11-20T23:44:12.109Z,3.6
2022-11-20T23:46:16.237Z,3.8
2022-11-20T23:50:10.808Z,3.7
2022-11-20T23:52:10.793Z,2.9
2022-11-20T23:54:11.078Z,3.5
2022-11-20T23:56:13.189Z,2.8
2022-11-20T23:58:09.902Z,2.7
